Time,TemperatureF,DewpointF,PressureIn,WindDirection,WindDirectionDegrees,WindSpeedMPH,WindSpeedGustMPH,Humidity,HourlyPrecipIn,Conditions,Clouds,dailyrainin,SoftwareType,DateUTC
2013-02-21 00:11:00,10.0,5.0,30.40,North,355,0.0,0.0,81,0.00,,,0.01,,2013-02-21 06:11:00,
2013-02-21 00:21:00,9.0,4.0,30.41,North,355,0.0,0.0,80,0.00,,,0.01,,2013-02-21 06:21:00,
2013-02-21 00:31:00,9.0,4.0,30.41,North,355,0.0,0.0,81,0.00,,,0.01,,2013-02-21 06:31:00,
2013-02-21 00:41:00,9.0,4.0,30.41,North,355,0.0,0.0,81,0.00,,,0.01,,2013-02-21 06:41:00,
2013-02-21 00:51:00,9.0,4.0,30.41,North,355,0.0,1.0,81,0.00,,,0.01,,2013-02-21 06:51:00,
2013-02-21 01:01:00,9.0,4.0,30.41,North,355,0.0,0.0,81,0.00,,,0.01,,2013-02-21 07:01:00,
2013-02-21 01:11:00,9.0,4.0,30.41,North,355,0.0,2.0,81,0.00,,,0.01,,2013-02-21 07:11:00,
2013-02-21 01:21:00,9.0,4.0,30.41,North,355,0.0,2.0,81,0.00,,,0.01,,2013-02-21 07:21:00,
2013-02-21 01:32:00,9.0,4.0,30.41,North,355,0.0,1.0,80,0.00,,,0.01,,2013-02-21 07:32:00,
2013-02-21 01:42:00,10.0,5.0,30.41,NE,42,0.0,2.0,80,0.00,,,0.01,,2013-02-21 07:42:00,
2013-02-21 01:52:00,10.0,5.0,30.41,NE,42,0.0,2.0,80,0.00,,,0.01,,2013-02-21 07:52:00,
2013-02-21 02:01:00,10.0,5.0,30.41,NNE,32,1.0,3.0,79,0.00,,,0.01,,2013-02-21 08:01:00,
2013-02-21 02:11:00,11.0,6.0,30.41,NE,41,1.0,3.0,79,0.00,,,0.01,,2013-02-21 08:11:00,
2013-02-21 02:21:00,11.0,6.0,30.41,NE,41,1.0,3.0,79,0.00,,,0.01,,2013-02-21 08:21:00,
2013-02-21 02:31:00,12.0,6.0,30.41,NE,56,2.0,3.0,77,0.00,,,0.01,,2013-02-21 08:31:00,
2013-02-21 02:41:00,12.0,6.0,30.41,NE,56,2.0,3.0,77,0.00,,,0.01,,2013-02-21 08:41:00,
2013-02-21 02:52:00,11.0,5.0,30.41,NE,56,0.0,0.0,76,0.00,,,0.01,,2013-02-21 08:52:00,
2013-02-21 03:01:00,11.0,5.0,30.41,NE,56,1.0,3.0,76,0.00,,,0.01,,2013-02-21 09:01:00,
2013-02-21 03:11:00,11.0,5.0,30.41,NE,56,1.0,3.0,76,0.00,,,0.01,,2013-02-21 09:11:00,
2013-02-21 03:22:00,10.0,4.0,30.41,NE,56,2.0,2.0,76,0.00,,,0.01,,2013-02-21 09:22:00,
2013-02-21 03:31:00,10.0,4.0,30.41,NE,44,0.0,3.0,76,0.00,,,0.01,,2013-02-21 09:31:00,
2013-02-21 03:41:00,10.0,4.0,30.41,NE,44,0.0,1.0,77,0.00,,,0.01,,2013-02-21 09:41:00,
2013-02-21 03:52:00,10.0,4.0,30.41,NE,44,0.0,1.0,77,0.00,,,0.01,,2013-02-21 09:52:00,
2013-02-21 04:01:00,10.0,4.0,30.41,NE,44,0.0,0.0,77,0.00,,,0.01,,2013-02-21 10:01:00,
2013-02-21 04:11:00,10.0,4.0,30.41,NE,44,0.0,0.0,77,0.00,,,0.01,,2013-02-21 10:11:00,
2013-02-21 04:21:00,9.0,3.0,30.42,NE,44,1.0,3.0,77,0.00,,,0.01,,2013-02-21 10:21:00,
2013-02-21 04:31:00,9.0,3.0,30.42,NE,44,0.0,0.0,77,0.00,,,0.01,,2013-02-21 10:31:00,
2013-02-21 04:41:00,9.0,3.0,30.42,NE,44,0.0,0.0,77,0.00,,,0.01,,2013-02-21 10:41:00,
2013-02-21 04:51:00,9.0,4.0,30.44,NE,44,0.0,1.0,78,0.00,,,0.01,,2013-02-21 10:51:00,
2013-02-21 05:01:00,9.0,4.0,30.44,NE,44,0.0,1.0,78,0.00,,,0.01,,2013-02-21 11:01:00,
2013-02-21 05:11:00,9.0,4.0,30.44,NE,44,0.0,1.0,78,0.00,,,0.01,,2013-02-21 11:11:00,
2013-02-21 05:21:00,9.0,4.0,30.45,NE,44,2.0,2.0,78,0.00,,,0.01,,2013-02-21 11:21:00,
2013-02-21 05:31:00,10.0,5.0,30.45,NE,44,0.0,2.0,78,0.00,,,0.01,,2013-02-21 11:31:00,
2013-02-21 05:41:00,10.0,5.0,30.45,NE,44,0.0,2.0,78,0.00,,,0.01,,2013-02-21 11:41:00,
2013-02-21 05:52:00,10.0,5.0,30.44,NE,38,3.0,3.0,78,0.00,,,0.01,,2013-02-21 11:52:00,
2013-02-21 06:01:00,10.0,4.0,30.44,NE,48,4.0,6.0,77,0.00,,,0.01,,2013-02-21 12:01:00,
2013-02-21 06:11:00,10.0,4.0,30.44,NE,48,4.0,6.0,77,0.00,,,0.01,,2013-02-21 12:11:00,
2013-02-21 06:21:00,9.0,3.0,30.40,ENE,63,1.0,3.0,77,0.00,,,0.01,,2013-02-21 12:21:00,
2013-02-21 06:32:00,9.0,4.0,30.40,East,80,2.0,2.0,78,0.00,,,0.01,,2013-02-21 12:32:00,
2013-02-21 06:42:00,9.0,4.0,30.37,ENE,63,0.0,1.0,78,0.00,,,0.01,,2013-02-21 12:42:00,
2013-02-21 06:53:00,9.0,4.0,30.37,ENE,63,0.0,1.0,78,0.00,,,0.01,,2013-02-21 12:53:00,
2013-02-21 07:01:00,9.0,4.0,30.37,ENE,63,1.0,1.0,79,0.00,,,0.01,,2013-02-21 13:01:00,
2013-02-21 07:12:00,9.0,4.0,30.37,ENE,63,1.0,1.0,79,0.00,,,0.01,,2013-02-21 13:12:00,
2013-02-21 07:22:00,10.0,5.0,30.43,ENE,63,0.0,0.0,81,0.00,,,0.01,,2013-02-21 13:22:00,
2013-02-21 07:32:00,10.0,5.0,30.43,ENE,63,0.0,0.0,81,0.00,,,0.01,,2013-02-21 13:32:00,
2013-02-21 07:41:00,10.0,5.0,30.43,ENE,63,0.0,0.0,81,0.00,,,0.01,,2013-02-21 13:41:00,
2013-02-21 07:52:00,11.0,6.0,30.44,ENE,63,0.0,0.0,81,0.00,,,0.01,,2013-02-21 13:52:00,
2013-02-21 08:02:00,11.0,6.0,30.44,ENE,63,0.0,0.0,81,0.00,,,0.01,,2013-02-21 14:02:00,
2013-02-21 08:11:00,11.0,6.0,30.44,ENE,63,0.0,0.0,81,0.00,,,0.01,,2013-02-21 14:11:00,
2013-02-21 08:21:00,12.0,7.0,30.43,ENE,63,0.0,0.0,81,0.00,,,0.01,,2013-02-21 14:21:00,
2013-02-21 08:32:00,13.0,8.0,30.43,ENE,63,0.0,1.0,81,0.00,,,0.01,,2013-02-21 14:32:00,
2013-02-21 08:42:00,13.0,8.0,30.45,ENE,63,2.0,3.0,80,0.00,,,0.01,,2013-02-21 14:42:00,
2013-02-21 08:52:00,13.0,8.0,30.45,ENE,63,2.0,3.0,80,0.00,,,0.01,,2013-02-21 14:52:00,
2013-02-21 09:01:00,13.0,9.0,30.45,ENE,63,0.0,1.0,82,0.00,,,0.01,,2013-02-21 15:01:00,
2013-02-21 09:12:00,13.0,9.0,30.45,ENE,63,0.0,1.0,82,0.00,,,0.01,,2013-02-21 15:12:00,
2013-02-21 09:21:00,15.0,11.0,30.44,ENE,63,0.0,0.0,83,0.00,,,0.01,,2013-02-21 15:21:00,
2013-02-21 09:32:00,16.0,12.0,30.44,ENE,63,1.0,2.0,83,0.00,,,0.01,,2013-02-21 15:32:00,
2013-02-21 09:42:00,16.0,12.0,30.44,ENE,63,1.0,2.0,83,0.00,,,0.01,,2013-02-21 15:42:00,
2013-02-21 09:52:00,17.0,12.0,30.43,ENE,62,0.0,0.0,81,0.00,,,0.01,,2013-02-21 15:52:00,
2013-02-21 10:01:00,17.0,12.0,30.43,NNE,19,2.0,3.0,81,0.00,,,0.01,,2013-02-21 16:01:00,
2013-02-21 10:12:00,17.0,12.0,30.42,NNE,24,1.0,3.0,81,0.00,,,0.01,,2013-02-21 16:12:00,
2013-02-21 10:21:00,17.0,12.0,30.42,NNE,24,1.0,3.0,81,0.00,,,0.01,,2013-02-21 16:21:00,
2013-02-21 10:32:00,17.0,12.0,30.42,NNE,31,0.0,2.0,80,0.00,,,0.01,,2013-02-21 16:32:00,
2013-02-21 10:42:00,17.0,12.0,30.42,NE,49,1.0,1.0,80,0.00,,,0.01,,2013-02-21 16:42:00,
2013-02-21 10:52:00,17.0,12.0,30.42,NE,49,1.0,1.0,80,0.00,,,0.01,,2013-02-21 16:52:00,
2013-02-21 11:01:00,17.0,12.0,30.42,NNW,343,2.0,2.0,79,0.00,,,0.00,,2013-02-21 17:01:00,
2013-02-21 11:11:00,18.0,13.0,30.43,NW,321,0.0,0.0,80,0.00,,,0.00,,2013-02-21 17:11:00,
2013-02-21 11:21:00,18.0,13.0,30.43,NW,321,0.0,0.0,80,0.00,,,0.00,,2013-02-21 17:21:00,
2013-02-21 11:32:00,18.0,13.0,30.43,North,360,2.0,3.0,80,0.00,,,0.00,,2013-02-21 17:32:00,
2013-02-21 11:42:00,18.0,13.0,30.43,North,360,2.0,3.0,80,0.00,,,0.00,,2013-02-21 17:42:00,
2013-02-21 11:52:00,19.0,14.0,30.40,NE,39,0.0,2.0,79,0.00,,,0.00,,2013-02-21 17:52:00,
2013-02-21 12:01:00,19.0,13.0,30.40,NNW,345,2.0,3.0,78,0.00,,,0.00,,2013-02-21 18:01:00,
2013-02-21 12:11:00,19.0,13.0,30.40,NNW,345,2.0,3.0,78,0.00,,,0.00,,2013-02-21 18:11:00,
2013-02-21 12:22:00,20.0,15.0,30.39,NE,36,2.0,3.0,80,0.00,,,0.00,,2013-02-21 18:22:00,
2013-02-21 12:31:00,20.0,15.0,30.39,ENE,57,6.0,6.0,80,0.00,,,0.00,,2013-02-21 18:31:00,
2013-02-21 12:42:00,20.0,15.0,30.39,ENE,57,6.0,6.0,80,0.00,,,0.00,,2013-02-21 18:42:00,
2013-02-21 12:52:00,20.0,15.0,30.35,North,11,2.0,6.0,81,0.00,,,0.00,,2013-02-21 18:52:00,
2013-02-21 13:01:00,21.0,16.0,30.35,NE,51,0.0,3.0,81,0.00,,,0.00,,2013-02-21 19:01:00,
2013-02-21 13:12:00,21.0,16.0,30.35,NE,51,0.0,3.0,81,0.00,,,0.00,,2013-02-21 19:12:00,
2013-02-21 13:21:00,22.0,17.0,30.34,NE,42,3.0,5.0,81,0.00,,,0.00,,2013-02-21 19:21:00,
2013-02-21 13:31:00,22.0,17.0,30.34,NE,45,3.0,3.0,81,0.00,,,0.00,,2013-02-21 19:31:00,
2013-02-21 13:41:00,22.0,17.0,30.34,NE,45,3.0,3.0,81,0.00,,,0.00,,2013-02-21 19:41:00,
2013-02-21 13:52:00,23.0,18.0,30.32,NE,52,2.0,3.0,81,0.00,,,0.00,,2013-02-21 19:52:00,
2013-02-21 14:01:00,24.0,20.0,30.32,NE,44,3.0,6.0,83,0.00,,,0.00,,2013-02-21 20:01:00,
2013-02-21 14:11:00,24.0,20.0,30.27,ENE,63,7.0,8.0,84,0.00,,,0.00,,2013-02-21 20:11:00,
2013-02-21 14:21:00,24.0,20.0,30.27,ENE,63,7.0,8.0,84,0.00,,,0.00,,2013-02-21 20:21:00,
2013-02-21 14:31:00,24.0,20.0,30.27,ENE,57,4.0,9.0,85,0.00,,,0.00,,2013-02-21 20:31:00,
2013-02-21 14:41:00,24.0,20.0,30.27,ENE,57,4.0,9.0,85,0.00,,,0.00,,2013-02-21 20:41:00,
2013-02-21 14:53:00,24.0,20.0,30.29,ENE,64,6.0,6.0,85,0.00,,,0.00,,2013-02-21 20:53:00,
2013-02-21 15:02:00,24.0,20.0,30.29,ENE,62,4.0,6.0,86,0.00,,,0.00,,2013-02-21 21:02:00,
2013-02-21 15:11:00,24.0,21.0,30.30,ENE,65,2.0,6.0,87,0.00,,,0.00,,2013-02-21 21:11:00,
2013-02-21 15:21:00,24.0,21.0,30.30,ENE,65,2.0,6.0,87,0.00,,,0.00,,2013-02-21 21:21:00,
2013-02-21 15:31:00,24.0,21.0,30.30,ENE,61,3.0,8.0,88,0.00,,,0.00,,2013-02-21 21:31:00,
2013-02-21 15:42:00,25.0,22.0,30.29,ENE,70,3.0,8.0,89,0.00,,,0.00,,2013-02-21 21:42:00,
2013-02-21 15:52:00,25.0,22.0,30.29,ENE,70,3.0,8.0,89,0.00,,,0.00,,2013-02-21 21:52:00,
2013-02-21 16:01:00,25.0,22.0,30.29,NE,40,5.0,9.0,89,0.00,,,0.00,,2013-02-21 22:01:00,
2013-02-21 16:11:00,25.0,22.0,30.29,NE,40,5.0,9.0,89,0.00,,,0.00,,2013-02-21 22:11:00,
2013-02-21 16:21:00,25.0,22.0,30.28,ENE,59,9.0,11.0,90,0.00,,,0.00,,2013-02-21 22:21:00,
2013-02-21 16:31:00,25.0,22.0,30.28,East,92,8.0,10.0,90,0.00,,,0.00,,2013-02-21 22:31:00,
2013-02-21 16:42:00,25.0,23.0,30.27,ENE,64,6.0,6.0,91,0.00,,,0.00,,2013-02-21 22:42:00,
2013-02-21 16:52:00,25.0,23.0,30.27,ENE,64,6.0,6.0,91,0.00,,,0.00,,2013-02-21 22:52:00,
2013-02-21 17:01:00,25.0,23.0,30.27,ENE,65,4.0,10.0,91,0.00,,,0.00,,2013-02-21 23:01:00,
2013-02-21 17:11:00,25.0,23.0,30.27,ENE,65,4.0,10.0,91,0.00,,,0.00,,2013-02-21 23:11:00,
2013-02-21 17:21:00,25.0,22.0,30.26,East,101,4.0,10.0,89,0.00,,,0.00,,2013-02-21 23:21:00,
2013-02-21 17:31:00,25.0,22.0,30.26,ESE,102,6.0,13.0,89,0.00,,,0.00,,2013-02-21 23:31:00,
2013-02-21 17:41:00,25.0,22.0,30.26,ESE,102,6.0,13.0,89,0.00,,,0.00,,2013-02-21 23:41:00,
2013-02-21 17:52:00,25.0,22.0,30.25,East,96,3.0,7.0,88,0.00,,,0.00,,2013-02-21 23:52:00,
2013-02-21 18:01:00,25.0,22.0,30.25,NE,52,3.0,8.0,88,0.00,,,0.00,,2013-02-22 00:01:00,
2013-02-21 18:11:00,25.0,22.0,30.25,NE,52,3.0,8.0,88,0.00,,,0.00,,2013-02-22 00:11:00,
2013-02-21 18:21:00,25.0,22.0,30.24,ENE,64,12.0,12.0,87,0.00,,,0.00,,2013-02-22 00:21:00,
2013-02-21 18:31:00,25.0,22.0,30.23,ESE,115,3.0,6.0,87,0.00,,,0.00,,2013-02-22 00:31:00,
2013-02-21 18:41:00,25.0,22.0,30.23,ESE,115,3.0,6.0,87,0.00,,,0.00,,2013-02-22 00:41:00,
2013-02-21 18:52:00,25.0,21.0,30.22,ENE,63,7.0,12.0,86,0.00,,,0.00,,2013-02-22 00:52:00,
2013-02-21 19:01:00,25.0,21.0,30.23,ENE,63,4.0,10.0,86,0.00,,,0.00,,2013-02-22 01:01:00,
2013-02-21 19:11:00,25.0,21.0,30.23,ENE,63,4.0,10.0,86,0.00,,,0.00,,2013-02-22 01:11:00,
2013-02-21 19:21:00,25.0,21.0,30.22,East,83,2.0,7.0,86,0.00,,,0.00,,2013-02-22 01:21:00,
2013-02-21 19:32:00,25.0,21.0,30.22,East,82,4.0,8.0,86,0.00,,,0.00,,2013-02-22 01:32:00,
2013-02-21 19:42:00,25.0,21.0,30.22,East,82,4.0,8.0,86,0.00,,,0.00,,2013-02-22 01:42:00,
2013-02-21 19:52:00,25.0,21.0,30.22,ENE,59,7.0,9.0,85,0.00,,,0.00,,2013-02-22 01:52:00,
2013-02-21 20:02:00,25.0,21.0,30.18,ENE,71,3.0,12.0,84,0.00,,,0.00,,2013-02-22 02:02:00,
2013-02-21 20:11:00,25.0,21.0,30.18,East,90,3.0,10.0,83,0.00,,,0.00,,2013-02-22 02:11:00,
2013-02-21 20:21:00,25.0,21.0,30.18,East,90,3.0,10.0,83,0.00,,,0.00,,2013-02-22 02:21:00,
2013-02-21 20:31:00,26.0,22.0,30.16,ENE,60,4.0,10.0,83,0.00,,,0.00,,2013-02-22 02:31:00,
2013-02-21 20:42:00,25.0,20.0,30.16,East,101,3.0,14.0,82,0.00,,,0.00,,2013-02-22 02:42:00,
2013-02-21 20:52:00,25.0,20.0,30.16,East,101,3.0,14.0,82,0.00,,,0.00,,2013-02-22 02:52:00,
2013-02-21 21:01:00,25.0,20.0,30.11,ESE,122,3.0,12.0,81,0.00,,,0.00,,2013-02-22 03:01:00,
2013-02-21 21:11:00,25.0,20.0,30.11,ESE,122,3.0,12.0,81,0.00,,,0.00,,2013-02-22 03:11:00,
2013-02-21 21:21:00,25.0,20.0,30.11,ESE,122,3.0,12.0,81,0.00,,,0.00,,2013-02-22 03:21:00,
2013-02-21 21:31:00,25.0,20.0,30.12,ESE,113,16.0,16.0,81,0.00,,,0.00,,2013-02-22 03:31:00,
2013-02-21 21:41:00,25.0,20.0,30.12,ESE,113,16.0,16.0,81,0.00,,,0.00,,2013-02-22 03:41:00,
2013-02-21 21:51:00,25.0,20.0,30.12,ENE,75,10.0,15.0,81,0.00,,,0.00,,2013-02-22 03:51:00,
2013-02-21 22:01:00,25.0,20.0,30.13,NNE,30,2.0,12.0,81,0.00,,,0.00,,2013-02-22 04:01:00,
2013-02-21 22:11:00,25.0,20.0,30.13,East,82,8.0,11.0,81,0.00,,,0.00,,2013-02-22 04:11:00,
2013-02-21 22:21:00,25.0,20.0,30.13,East,82,8.0,11.0,81,0.00,,,0.00,,2013-02-22 04:21:00,
2013-02-21 22:32:00,25.0,20.0,30.11,East,93,7.0,12.0,82,0.00,,,0.00,,2013-02-22 04:32:00,
2013-02-21 22:42:00,25.0,20.0,30.11,East,93,7.0,12.0,82,0.00,,,0.00,,2013-02-22 04:42:00,
2013-02-21 22:51:00,25.0,20.0,30.11,SE,146,3.0,10.0,82,0.00,,,0.00,,2013-02-22 04:51:00,
2013-02-21 23:02:00,25.0,21.0,30.11,ESE,113,3.0,11.0,83,0.00,,,0.00,,2013-02-22 05:02:00,
2013-02-21 23:12:00,25.0,21.0,30.11,ESE,113,3.0,11.0,83,0.00,,,0.00,,2013-02-22 05:12:00,
2013-02-21 23:22:00,25.0,21.0,30.11,East,98,7.0,9.0,83,0.00,,,0.00,,2013-02-22 05:22:00,
2013-02-21 23:32:00,25.0,21.0,30.10,ESE,111,2.0,10.0,83,0.00,,,0.00,,2013-02-22 05:32:00,
2013-02-21 23:41:00,25.0,21.0,30.10,ESE,111,2.0,10.0,83,0.00,,,0.00,,2013-02-22 05:41:00,
2013-02-21 23:52:00,25.0,21.0,30.10,SE,126,3.0,12.0,83,0.00,,,0.00,,2013-02-22 05:52:00,